createdAt,value
2018-09-12T00:00:03.155Z,59.72
2018-09-12T00:01:02.941Z,59.72
2018-09-12T00:02:02.856Z,59.74
2018-09-12T00:03:02.931Z,59.75
2018-09-12T00:04:03.078Z,59.75
2018-09-12T00:05:03.039Z,59.78
2018-09-12T00:06:03.100Z,59.76
2018-09-12T00:07:03.113Z,59.75
2018-09-12T00:08:02.985Z,59.71
2018-09-12T00:09:03.136Z,59.75
2018-09-12T00:10:03.173Z,59.75
2018-09-12T00:11:03.162Z,59.74
2018-09-12T00:12:02.999Z,59.8
2018-09-12T00:13:03.099Z,59.78
2018-09-12T00:14:03.220Z,59.75
2018-09-12T00:15:03.152Z,59.73
2018-09-12T00:16:03.207Z,59.75
2018-09-12T00:17:02.950Z,59.73
2018-09-12T00:18:03.308Z,59.72
2018-09-12T00:19:03.304Z,59.72
2018-09-12T00:20:03.185Z,59.73
2018-09-12T00:21:03.715Z,59.73
2018-09-12T00:22:03.171Z,59.71
2018-09-12T00:23:03.463Z,59.72
2018-09-12T00:24:03.106Z,59.66
2018-09-12T00:25:03.030Z,59.72
2018-09-12T00:26:03.076Z,59.73
2018-09-12T00:27:02.985Z,59.77
2018-09-12T00:28:03.104Z,59.73
2018-09-12T00:29:03.099Z,59.73
2018-09-12T00:30:03.383Z,59.72
2018-09-12T00:31:02.879Z,59.71
2018-09-12T00:32:03.192Z,59.73
2018-09-12T00:33:03.134Z,59.73
2018-09-12T00:34:03.171Z,59.76
2018-09-12T00:35:03.086Z,59.8
2018-09-12T00:36:03.492Z,59.75
2018-09-12T00:37:03.422Z,59.72
2018-09-12T00:38:03.061Z,59.75
2018-09-12T00:39:03.097Z,59.73
2018-09-12T00:40:02.949Z,59.73
2018-09-12T00:41:02.889Z,59.76
2018-09-12T00:42:03.176Z,59.74
2018-09-12T00:43:03.009Z,59.75
2018-09-12T00:44:03.211Z,59.74
2018-09-12T00:45:03.141Z,59.71
2018-09-12T00:46:02.977Z,59.75
2018-09-12T00:47:02.812Z,59.71
2018-09-12T00:48:03.039Z,59.79
2018-09-12T00:49:03.177Z,59.73
2018-09-12T00:50:03.120Z,59.72
2018-09-12T00:51:03.146Z,59.72
2018-09-12T00:52:03.171Z,59.72
2018-09-12T00:53:03.122Z,59.74
2018-09-12T00:54:03.121Z,59.69
2018-09-12T00:55:03.093Z,59.7
2018-09-12T00:56:02.964Z,59.75
2018-09-12T00:57:03.109Z,59.77
2018-09-12T00:58:03.189Z,59.71
2018-09-12T00:59:03.171Z,59.7
2018-09-12T01:00:03.020Z,59.7
2018-09-12T01:01:03.004Z,59.7
2018-09-12T01:02:03.200Z,59.75
2018-09-12T01:03:03.203Z,59.74
2018-09-12T01:04:03.259Z,59.77
2018-09-12T01:05:02.930Z,59.73
2018-09-12T01:06:03.014Z,59.75
2018-09-12T01:07:03.276Z,59.74
2018-09-12T01:08:02.875Z,59.66
2018-09-12T01:09:03.180Z,59.72
2018-09-12T01:10:02.894Z,59.74
2018-09-12T01:11:02.964Z,59.73
2018-09-12T01:12:03.237Z,59.71
2018-09-12T01:13:03.067Z,59.75
2018-09-12T01:14:03.115Z,59.75
2018-09-12T01:15:03.008Z,59.71
2018-09-12T01:16:03.144Z,59.69
2018-09-12T01:17:03.293Z,59.64
2018-09-12T01:18:03.119Z,59.71
2018-09-12T01:19:03.159Z,59.69
2018-09-12T01:20:03.239Z,59.7
2018-09-12T01:21:02.985Z,59.72
2018-09-12T01:22:03.032Z,59.69
2018-09-12T01:23:02.876Z,59.76
2018-09-12T01:24:02.977Z,59.69
2018-09-12T01:25:03.064Z,59.72
2018-09-12T01:26:03.123Z,59.74
2018-09-12T01:27:03.124Z,59.69
2018-09-12T01:28:03.008Z,59.76
2018-09-12T01:29:03.037Z,59.73
2018-09-12T01:30:03.123Z,59.76
2018-09-12T01:31:02.882Z,59.69
2018-09-12T01:32:03.097Z,59.69
2018-09-12T01:33:03.121Z,59.65
2018-09-12T01:34:02.993Z,59.72
2018-09-12T01:35:02.988Z,59.68
2018-09-12T01:36:02.987Z,59.71
2018-09-12T01:37:03.173Z,59.69
2018-09-12T01:38:03.142Z,59.7
2018-09-12T01:39:03.089Z,59.7
2018-09-12T01:40:03.096Z,59.72
2018-09-12T01:41:03.132Z,59.69
2018-09-12T01:42:03.164Z,59.69
2018-09-12T01:43:03.045Z,59.71
2018-09-12T01:44:02.916Z,59.69
2018-09-12T01:45:02.884Z,59.68
2018-09-12T01:46:03.181Z,59.68
2018-09-12T01:47:03.155Z,59.68
2018-09-12T01:48:03.042Z,59.72
2018-09-12T01:49:03.040Z,59.69
2018-09-12T01:50:03.059Z,59.67
2018-09-12T01:51:03.009Z,59.62
2018-09-12T01:52:03.053Z,59.69
2018-09-12T01:53:03.065Z,59.69
2018-09-12T01:54:03.130Z,59.7
2018-09-12T01:55:03.019Z,59.7
2018-09-12T01:56:02.919Z,59.69
2018-09-12T01:57:03.180Z,59.72
2018-09-12T01:58:03.057Z,59.71
2018-09-12T01:59:03.144Z,59.69
2018-09-12T02:00:03.249Z,59.67
2018-09-12T02:01:02.924Z,59.71
2018-09-12T02:02:03.158Z,59.71
2018-09-12T02:03:03.023Z,59.71
2018-09-12T02:04:03.194Z,59.68
2018-09-12T02:05:02.974Z,59.63
2018-09-12T02:06:02.937Z,59.65
2018-09-12T02:07:02.889Z,59.7
2018-09-12T02:08:02.993Z,59.68
2018-09-12T02:09:03.043Z,59.67
2018-09-12T02:10:03.201Z,59.66
2018-09-12T02:11:02.948Z,59.68
2018-09-12T02:12:03.078Z,59.62
2018-09-12T02:13:03.070Z,59.65
2018-09-12T02:14:03.054Z,59.64
2018-09-12T02:15:02.945Z,59.66
2018-09-12T02:16:02.842Z,59.69
2018-09-12T02:17:03.180Z,59.65
2018-09-12T02:18:03.303Z,59.68
2018-09-12T02:19:03.099Z,59.66
2018-09-12T02:20:03.237Z,59.66
2018-09-12T02:21:02.924Z,59.63
2018-09-12T02:22:03.060Z,59.67
2018-09-12T02:23:03.066Z,59.67
2018-09-12T02:24:03.132Z,59.65
2018-09-12T02:25:03.078Z,59.65
2018-09-12T02:26:02.940Z,59.62
2018-09-12T02:27:03.111Z,59.64
2018-09-12T02:28:03.165Z,59.69
2018-09-12T02:29:03.088Z,59.66
2018-09-12T02:30:02.858Z,59.67
2018-09-12T02:31:03.079Z,59.64
2018-09-12T02:32:03.144Z,59.61
2018-09-12T02:33:02.942Z,59.64
2018-09-12T02:34:03.029Z,59.64
2018-09-12T02:35:03.040Z,59.64
2018-09-12T02:36:03.120Z,59.65
2018-09-12T02:37:03.206Z,59.66
2018-09-12T02:38:03.024Z,59.66
2018-09-12T02:39:03.088Z,59.65
2018-09-12T02:40:03.414Z,59.63
2018-09-12T02:41:02.970Z,59.64
2018-09-12T02:42:03.273Z,59.64
2018-09-12T02:43:02.965Z,59.63
2018-09-12T02:44:03.090Z,59.61
2018-09-12T02:45:02.891Z,59.64
2018-09-12T02:46:02.919Z,59.62
2018-09-12T02:47:02.982Z,59.64
2018-09-12T02:48:03.237Z,59.65
2018-09-12T02:49:02.941Z,59.7
2018-09-12T02:50:03.063Z,59.63
2018-09-12T02:51:02.753Z,59.65
2018-09-12T02:52:03.120Z,59.63
2018-09-12T02:53:03.277Z,59.61
2018-09-12T02:54:03.117Z,59.65
2018-09-12T02:55:02.867Z,59.63
2018-09-12T02:56:02.951Z,59.61
2018-09-12T02:57:03.013Z,59.66
2018-09-12T02:58:02.866Z,59.67
2018-09-12T02:59:02.848Z,59.62
2018-09-12T03:00:03.027Z,59.64
2018-09-12T03:01:03.341Z,59.64
2018-09-12T03:02:02.974Z,59.68
2018-09-12T03:03:02.798Z,59.69
2018-09-12T03:04:03.115Z,59.66
2018-09-12T03:05:03.164Z,59.68
2018-09-12T03:06:02.946Z,59.65
2018-09-12T03:07:03.061Z,59.64
2018-09-12T03:08:04.030Z,59.67
2018-09-12T03:09:03.003Z,59.61
2018-09-12T03:10:03.313Z,59.68
2018-09-12T03:11:02.851Z,59.66
2018-09-12T03:12:03.104Z,59.65
2018-09-12T03:13:03.122Z,59.67
2018-09-12T03:14:02.921Z,59.66
2018-09-12T03:15:03.003Z,59.68
2018-09-12T03:16:03.218Z,59.66
2018-09-12T03:17:02.837Z,59.66
2018-09-12T03:18:03.009Z,59.69
2018-09-12T03:19:03.231Z,59.63
2018-09-12T03:20:03.106Z,59.65
2018-09-12T03:21:05.887Z,59.65
2018-09-12T03:22:03.203Z,59.62
2018-09-12T03:23:02.973Z,59.63
2018-09-12T03:24:03.042Z,59.64
2018-09-12T03:25:03.164Z,59.65
2018-09-12T03:26:02.980Z,59.62
2018-09-12T03:27:03.550Z,59.61
2018-09-12T03:28:03.154Z,59.64
2018-09-12T03:29:02.909Z,59.64
2018-09-12T03:30:03.040Z,59.63
2018-09-12T03:31:03.162Z,59.66
2018-09-12T03:32:03.028Z,59.67
2018-09-12T03:33:03.101Z,59.65
2018-09-12T03:34:03.075Z,59.67
2018-09-12T03:35:02.960Z,59.61
2018-09-12T03:36:03.123Z,59.64
2018-09-12T03:37:02.955Z,59.63
2018-09-12T03:38:02.972Z,59.61
2018-09-12T03:39:02.827Z,59.61
2018-09-12T03:40:02.917Z,59.64
2018-09-12T03:41:03.204Z,59.62
2018-09-12T03:42:02.886Z,59.62
2018-09-12T03:43:02.982Z,59.6
2018-09-12T03:44:02.964Z,59.59
2018-09-12T03:45:03.288Z,59.65
2018-09-12T03:46:03.011Z,59.63
2018-09-12T03:47:03.088Z,59.65
2018-09-12T03:48:04.069Z,59.63
2018-09-12T03:49:02.964Z,59.62
2018-09-12T03:50:03.107Z,59.63
2018-09-12T03:51:02.947Z,59.61
2018-09-12T03:52:03.093Z,59.62
2018-09-12T03:53:03.015Z,59.63
2018-09-12T03:54:02.931Z,59.63
2018-09-12T03:55:03.117Z,59.65
2018-09-12T03:56:02.992Z,59.64
2018-09-12T03:57:02.996Z,59.63
2018-09-12T03:58:03.097Z,59.61
2018-09-12T03:59:02.987Z,59.59
2018-09-12T04:00:03.007Z,59.58
2018-09-12T04:01:03.118Z,59.61
2018-09-12T04:02:02.806Z,59.63
2018-09-12T04:03:02.872Z,59.59
2018-09-12T04:04:02.983Z,59.63
2018-09-12T04:05:02.916Z,59.65
2018-09-12T04:06:03.038Z,59.65
2018-09-12T04:07:02.887Z,59.64
2018-09-12T04:08:02.960Z,59.65
2018-09-12T04:09:02.906Z,59.65
2018-09-12T04:10:03.128Z,59.66
2018-09-12T04:11:02.818Z,59.61
2018-09-12T04:12:03.026Z,59.58
2018-09-12T04:13:03.060Z,59.69
2018-09-12T04:14:03.059Z,59.63
2018-09-12T04:15:02.942Z,59.62
2018-09-12T04:16:02.896Z,59.66
2018-09-12T04:17:03.324Z,59.66
2018-09-12T04:18:03.082Z,59.64
2018-09-12T04:19:03.056Z,59.61
2018-09-12T04:20:02.888Z,59.66
2018-09-12T04:21:02.993Z,59.61
2018-09-12T04:22:02.927Z,59.59
2018-09-12T04:23:02.939Z,59.64
2018-09-12T04:24:03.335Z,59.63
2018-09-12T04:25:03.210Z,59.64
2018-09-12T04:26:03.004Z,59.65
2018-09-12T04:27:03.011Z,59.69
2018-09-12T04:28:03.073Z,59.66
2018-09-12T04:29:02.913Z,59.67
2018-09-12T04:30:03.226Z,59.65
2018-09-12T04:31:03.069Z,59.64
2018-09-12T04:32:03.067Z,59.65
2018-09-12T04:33:02.875Z,59.66
2018-09-12T04:34:02.967Z,59.62
2018-09-12T04:35:02.838Z,59.64
2018-09-12T04:36:02.979Z,59.66
2018-09-12T04:37:02.994Z,59.66
2018-09-12T04:38:02.983Z,59.66
2018-09-12T04:39:03.047Z,59.66
2018-09-12T04:40:03.325Z,59.63
2018-09-12T04:41:03.156Z,59.69
2018-09-12T04:42:02.951Z,59.64
2018-09-12T04:43:02.991Z,59.68
2018-09-12T04:44:03.262Z,59.68
2018-09-12T04:45:03.063Z,59.68
2018-09-12T04:46:03.053Z,59.7
2018-09-12T04:47:03.016Z,59.7
2018-09-12T04:48:03.045Z,59.69
2018-09-12T04:49:02.983Z,59.68
2018-09-12T04:50:02.980Z,59.64
2018-09-12T04:51:03.014Z,59.66
2018-09-12T04:52:03.117Z,59.67
2018-09-12T04:53:02.856Z,59.64
2018-09-12T04:54:02.887Z,59.62
2018-09-12T04:55:03.840Z,59.67
2018-09-12T04:56:03.094Z,59.67
2018-09-12T04:57:03.121Z,59.63
2018-09-12T04:58:03.018Z,59.66
2018-09-12T04:59:03.000Z,59.64
2018-09-12T05:00:03.307Z,59.59
2018-09-12T05:01:02.960Z,59.61
2018-09-12T05:02:02.891Z,59.6
2018-09-12T05:03:03.260Z,59.6
2018-09-12T05:04:03.065Z,59.6
2018-09-12T05:05:02.929Z,59.59
2018-09-12T05:06:02.945Z,59.63
2018-09-12T05:07:03.134Z,59.64
2018-09-12T05:08:03.190Z,59.6
2018-09-12T05:09:03.089Z,59.62
2018-09-12T05:10:03.523Z,59.58
2018-09-12T05:11:02.983Z,59.6
2018-09-12T05:12:02.758Z,59.59
2018-09-12T05:13:02.998Z,59.62
2018-09-12T05:14:03.042Z,59.64
2018-09-12T05:15:03.112Z,59.65
2018-09-12T05:16:03.990Z,59.59
2018-09-12T05:17:03.169Z,59.61
2018-09-12T05:18:03.083Z,59.62
2018-09-12T05:19:02.899Z,59.61
2018-09-12T05:20:02.993Z,59.64
2018-09-12T05:21:03.007Z,59.62
2018-09-12T05:22:03.242Z,59.63
2018-09-12T05:23:03.180Z,59.57
2018-09-12T05:24:02.988Z,59.59
2018-09-12T05:25:02.774Z,59.61
2018-09-12T05:26:03.119Z,59.64
2018-09-12T05:27:02.960Z,59.62
2018-09-12T05:28:02.960Z,59.65
2018-09-12T05:29:02.893Z,59.63
2018-09-12T05:30:02.916Z,59.55
2018-09-12T05:31:03.016Z,59.57
2018-09-12T05:32:03.083Z,59.59
2018-09-12T05:33:02.987Z,59.57
2018-09-12T05:34:03.047Z,59.6
2018-09-12T05:35:03.096Z,59.62
2018-09-12T05:36:03.035Z,59.58
2018-09-12T05:37:02.888Z,59.6
2018-09-12T05:38:02.901Z,59.62
2018-09-12T05:39:02.934Z,59.59
2018-09-12T05:40:03.022Z,59.6
2018-09-12T05:41:02.831Z,59.62
2018-09-12T05:42:02.807Z,59.63
2018-09-12T05:43:02.797Z,59.61
2018-09-12T05:44:03.011Z,59.64
2018-09-12T05:45:02.912Z,59.65
2018-09-12T05:46:02.930Z,59.67
2018-09-12T05:47:02.843Z,59.67
2018-09-12T05:48:03.060Z,59.65
2018-09-12T05:49:02.972Z,59.62
2018-09-12T05:50:03.550Z,59.63
2018-09-12T05:51:03.018Z,59.63
2018-09-12T05:52:03.086Z,59.58
2018-09-12T05:53:02.934Z,59.62
2018-09-12T05:54:03.027Z,59.57
2018-09-12T05:55:02.947Z,59.54
2018-09-12T05:56:03.304Z,59.32
2018-09-12T05:57:03.032Z,58.91
2018-09-12T05:58:03.089Z,58.51
2018-09-12T05:59:03.180Z,58.43
2018-09-12T06:00:02.874Z,58.1
2018-09-12T06:01:03.066Z,58.24
2018-09-12T06:02:03.083Z,58.09
2018-09-12T06:03:02.972Z,58.08
2018-09-12T06:04:03.111Z,58.06
2018-09-12T06:05:03.161Z,58.08
2018-09-12T06:06:03.070Z,58.07
2018-09-12T06:07:04.913Z,57.99
2018-09-12T06:08:03.166Z,58.1
2018-09-12T06:09:02.941Z,58
2018-09-12T06:10:03.109Z,58.02
2018-09-12T06:11:02.966Z,58
2018-09-12T06:12:03.266Z,57.88
2018-09-12T06:13:02.809Z,57.89
2018-09-12T06:14:03.706Z,58.02
2018-09-12T06:15:03.260Z,57.97
2018-09-12T06:16:02.861Z,57.89
2018-09-12T06:17:03.108Z,58.03
2018-09-12T06:18:03.144Z,58.06
2018-09-12T06:19:02.930Z,57.96
2018-09-12T06:20:03.163Z,58.05
2018-09-12T06:21:02.833Z,57.94
2018-09-12T06:22:03.127Z,57.97
2018-09-12T06:23:02.987Z,57.87
2018-09-12T06:24:02.802Z,58.22
2018-09-12T06:25:03.371Z,58.15
2018-09-12T06:26:03.098Z,58.27
2018-09-12T06:27:02.917Z,58.28
2018-09-12T06:28:03.306Z,58.38
2018-09-12T06:29:03.205Z,58.52
2018-09-12T06:30:03.063Z,58.53
2018-09-12T06:31:03.048Z,58.49
2018-09-12T06:32:03.002Z,58.45
2018-09-12T06:33:03.179Z,58.24
2018-09-12T06:34:02.903Z,58.34
2018-09-12T06:35:02.917Z,58.33
2018-09-12T06:36:02.932Z,58.38
2018-09-12T06:37:03.606Z,58.45
2018-09-12T06:38:02.915Z,58.4
2018-09-12T06:39:03.002Z,58.42
2018-09-12T06:40:03.338Z,58.36
2018-09-12T06:41:02.891Z,58.39
2018-09-12T06:42:03.090Z,58.36
2018-09-12T06:43:02.928Z,58.4
2018-09-12T06:44:03.031Z,58.35
2018-09-12T06:45:03.057Z,58.31
2018-09-12T06:46:02.886Z,58.34
2018-09-12T06:47:02.940Z,58.38
2018-09-12T06:48:02.982Z,58.4
2018-09-12T06:49:02.905Z,58.42
2018-09-12T06:50:02.865Z,58.49
2018-09-12T06:51:02.904Z,58.48
2018-09-12T06:52:03.040Z,58.45
2018-09-12T06:53:02.802Z,58.52
2018-09-12T06:54:03.125Z,58.63
2018-09-12T06:55:03.079Z,58.55
2018-09-12T06:56:02.832Z,58.48
2018-09-12T06:57:02.890Z,58.57
2018-09-12T06:58:02.951Z,58.55
2018-09-12T06:59:03.059Z,58.6
2018-09-12T07:00:02.894Z,58.55
2018-09-12T07:01:03.634Z,58.55
2018-09-12T07:02:02.950Z,58.56
2018-09-12T07:03:02.891Z,58.66
2018-09-12T07:04:03.031Z,58.63
2018-09-12T07:05:02.759Z,58.65
2018-09-12T07:06:02.868Z,58.71
2018-09-12T07:07:03.211Z,58.77
2018-09-12T07:08:02.832Z,58.77
2018-09-12T07:09:03.069Z,58.73
2018-09-12T07:10:03.525Z,58.76
2018-09-12T07:11:03.090Z,58.77
2018-09-12T07:12:03.168Z,58.8
2018-09-12T07:13:03.029Z,58.9
2018-09-12T07:14:03.555Z,58.85
2018-09-12T07:15:03.141Z,58.83
2018-09-12T07:16:02.888Z,58.85
2018-09-12T07:17:03.129Z,58.68
2018-09-12T07:18:03.250Z,58.73
2018-09-12T07:19:02.858Z,58.88
2018-09-12T07:20:02.924Z,58.84
2018-09-12T07:21:03.049Z,58.81
2018-09-12T07:22:02.902Z,58.87
2018-09-12T07:23:02.872Z,58.85
2018-09-12T07:24:03.130Z,58.86
2018-09-12T07:25:03.185Z,58.89
2018-09-12T07:26:02.972Z,58.87
2018-09-12T07:27:03.015Z,58.9
2018-09-12T07:28:03.118Z,58.9
2018-09-12T07:29:02.853Z,58.94
2018-09-12T07:30:02.909Z,58.95
2018-09-12T07:31:02.871Z,58.92
2018-09-12T07:32:02.828Z,58.95
2018-09-12T07:33:03.001Z,58.94
2018-09-12T07:34:02.939Z,58.87
2018-09-12T07:35:02.998Z,58.91
2018-09-12T07:36:02.978Z,58.91
2018-09-12T07:37:02.822Z,58.87
2018-09-12T07:38:02.785Z,58.94
2018-09-12T07:39:03.013Z,58.89
2018-09-12T07:40:03.137Z,58.89
2018-09-12T07:41:02.925Z,58.86
2018-09-12T07:42:03.073Z,58.84
2018-09-12T07:43:02.975Z,58.96
2018-09-12T07:44:02.990Z,59.01
2018-09-12T07:45:03.145Z,58.89
2018-09-12T07:46:02.921Z,58.88
2018-09-12T07:47:03.046Z,58.97
2018-09-12T07:48:03.121Z,58.91
2018-09-12T07:49:03.675Z,59
2018-09-12T07:50:03.383Z,58.93
2018-09-12T07:51:02.867Z,58.95
2018-09-12T07:52:02.908Z,59.03
2018-09-12T07:53:02.943Z,59.07
2018-09-12T07:54:02.891Z,59.06
2018-09-12T07:55:03.088Z,59.03
2018-09-12T07:56:03.845Z,59.04
2018-09-12T07:57:03.078Z,59.04
2018-09-12T07:58:02.927Z,59.06
2018-09-12T07:59:02.968Z,58.97
2018-09-12T08:00:04.002Z,58.94
2018-09-12T08:01:02.816Z,58.97
2018-09-12T08:02:02.868Z,59.05
2018-09-12T08:03:03.079Z,59.02
2018-09-12T08:04:02.856Z,59.04
2018-09-12T08:05:03.106Z,59.01
2018-09-12T08:06:03.206Z,59.01
2018-09-12T08:07:02.963Z,59.09
2018-09-12T08:08:02.916Z,59.01
2018-09-12T08:09:02.857Z,58.99
2018-09-12T08:10:03.040Z,59.06
2018-09-12T08:11:02.817Z,59.02
2018-09-12T08:12:03.150Z,59.11
2018-09-12T08:13:02.795Z,59.16
2018-09-12T08:14:02.953Z,59.17
2018-09-12T08:15:02.991Z,59.13
2018-09-12T08:16:02.957Z,59.19
2018-09-12T08:17:03.183Z,59.16
2018-09-12T08:18:02.926Z,59.09
2018-09-12T08:19:04.086Z,59.08
2018-09-12T08:20:02.800Z,59.06
2018-09-12T08:21:02.770Z,59.05
2018-09-12T08:22:02.968Z,59.07
2018-09-12T08:23:03.017Z,58.98
2018-09-12T08:24:03.027Z,59.01
2018-09-12T08:25:03.086Z,59.04
2018-09-12T08:26:03.207Z,58.99
2018-09-12T08:27:02.877Z,58.99
2018-09-12T08:28:03.162Z,59.01
2018-09-12T08:29:03.020Z,59.05
2018-09-12T08:30:02.953Z,59.06
2018-09-12T08:31:02.947Z,59.08
2018-09-12T08:32:02.956Z,59.04
2018-09-12T08:33:03.074Z,59.07
2018-09-12T08:34:03.247Z,59.09
2018-09-12T08:35:03.124Z,59.06
2018-09-12T08:36:02.973Z,59.06
2018-09-12T08:37:03.108Z,59.08
2018-09-12T08:38:03.132Z,59.04
2018-09-12T08:39:02.984Z,59.05
2018-09-12T08:40:02.968Z,59.07
2018-09-12T08:41:02.864Z,59.08
2018-09-12T08:42:03.549Z,59.15
2018-09-12T08:43:03.212Z,59.16
2018-09-12T08:44:03.130Z,59.18
2018-09-12T08:45:03.144Z,59.13
2018-09-12T08:46:02.741Z,59.15
2018-09-12T08:47:02.959Z,59.04
2018-09-12T08:48:03.075Z,59.08
2018-09-12T08:49:02.980Z,58.99
2018-09-12T08:50:03.027Z,59
2018-09-12T08:51:03.070Z,59.1
2018-09-12T08:52:02.940Z,59.06
2018-09-12T08:53:03.733Z,59.01
2018-09-12T08:54:03.108Z,59.07
2018-09-12T08:55:03.054Z,59.05
2018-09-12T08:56:02.835Z,59.06
2018-09-12T08:57:02.886Z,59.06
2018-09-12T08:58:02.944Z,59.25
2018-09-12T08:59:03.089Z,59.16
2018-09-12T09:00:02.926Z,59.19
2018-09-12T09:01:02.915Z,59.3
2018-09-12T09:02:03.034Z,59.29
2018-09-12T09:03:02.950Z,59.3
2018-09-12T09:04:03.634Z,59.49
2018-09-12T09:05:03.203Z,59.46
2018-09-12T09:06:02.869Z,59.45
2018-09-12T09:07:03.129Z,59.41
2018-09-12T09:08:03.019Z,59.41
2018-09-12T09:09:02.930Z,59.34
2018-09-12T09:10:03.098Z,59.33
2018-09-12T09:11:02.988Z,59.4
2018-09-12T09:12:02.976Z,59.53
2018-09-12T09:13:02.979Z,59.59
2018-09-12T09:14:02.981Z,59.48
2018-09-12T09:15:03.043Z,59.35
2018-09-12T09:16:03.007Z,59.36
2018-09-12T09:17:03.051Z,59.31
2018-09-12T09:18:02.996Z,59.38
2018-09-12T09:19:02.920Z,59.38
2018-09-12T09:20:03.029Z,59.42
2018-09-12T09:21:02.864Z,59.36
2018-09-12T09:22:03.059Z,59.33
2018-09-12T09:23:02.756Z,59.32
2018-09-12T09:24:03.096Z,59.32
2018-09-12T09:25:03.158Z,59.37
2018-09-12T09:26:02.959Z,59.33
2018-09-12T09:27:02.769Z,59.32
2018-09-12T09:28:02.954Z,59.28
2018-09-12T09:29:02.872Z,59.25
2018-09-12T09:30:02.894Z,59.23
2018-09-12T09:31:02.805Z,59.28
2018-09-12T09:32:03.114Z,59.24
2018-09-12T09:33:02.780Z,59.26
2018-09-12T09:34:02.947Z,59.27
2018-09-12T09:35:04.384Z,59.25
2018-09-12T09:36:02.980Z,59.28
2018-09-12T09:37:03.042Z,59.27
2018-09-12T09:38:02.811Z,59.32
2018-09-12T09:39:02.851Z,59.28
2018-09-12T09:40:02.810Z,59.35
2018-09-12T09:41:03.175Z,59.3
2018-09-12T09:42:03.082Z,59.3
2018-09-12T09:43:02.909Z,59.38
2018-09-12T09:44:03.377Z,59.35
2018-09-12T09:45:02.874Z,59.31
2018-09-12T09:46:03.015Z,59.28
2018-09-12T09:47:03.029Z,59.31
2018-09-12T09:48:04.105Z,59.32
2018-09-12T09:49:02.867Z,59.32
2018-09-12T09:50:02.848Z,59.38
2018-09-12T09:51:02.892Z,59.39
2018-09-12T09:52:02.856Z,59.41
2018-09-12T09:53:02.839Z,59.35
2018-09-12T09:54:03.248Z,59.35
2018-09-12T09:55:03.732Z,59.38
2018-09-12T09:56:02.976Z,59.39
2018-09-12T09:57:03.175Z,59.36
2018-09-12T09:58:03.207Z,59.36
2018-09-12T09:59:02.980Z,59.28
2018-09-12T10:00:03.083Z,59.33
2018-09-12T10:01:03.159Z,59.34
2018-09-12T10:02:02.935Z,59.37
2018-09-12T10:03:03.067Z,59.37
2018-09-12T10:04:02.778Z,59.37
2018-09-12T10:05:02.776Z,59.35
2018-09-12T10:06:03.970Z,59.33
2018-09-12T10:07:02.954Z,59.37
2018-09-12T10:08:02.921Z,59.33
2018-09-12T10:09:02.867Z,59.37
2018-09-12T10:10:02.937Z,59.39
2018-09-12T10:11:02.959Z,59.36
2018-09-12T10:12:02.805Z,59.37
2018-09-12T10:13:02.912Z,59.39
2018-09-12T10:14:03.020Z,59.38
2018-09-12T10:15:02.918Z,59.39
2018-09-12T10:16:02.845Z,59.39
2018-09-12T10:17:03.178Z,59.34
2018-09-12T10:18:02.915Z,59.36
2018-09-12T10:19:02.996Z,59.37
2018-09-12T10:20:02.959Z,59.32
2018-09-12T10:21:03.113Z,59.33
2018-09-12T10:22:02.918Z,59.36
2018-09-12T10:23:02.973Z,59.35
2018-09-12T10:24:02.847Z,59.38
2018-09-12T10:25:03.073Z,59.4
2018-09-12T10:26:03.009Z,59.37
2018-09-12T10:27:02.936Z,59.35
2018-09-12T10:28:02.959Z,59.38
2018-09-12T10:29:03.079Z,59.36
2018-09-12T10:30:02.965Z,59.35
2018-09-12T10:31:02.897Z,59.32
2018-09-12T10:32:02.866Z,59.3
2018-09-12T10:33:02.922Z,59.33
2018-09-12T10:34:03.028Z,59.39
2018-09-12T10:35:03.138Z,59.3
2018-09-12T10:36:03.076Z,59.26
2018-09-12T10:37:03.182Z,59.33
2018-09-12T10:38:02.892Z,59.37
2018-09-12T10:39:03.045Z,59.35
2018-09-12T10:40:02.923Z,59.39
2018-09-12T10:41:03.984Z,59.37
2018-09-12T10:42:03.033Z,59.38
2018-09-12T10:43:03.005Z,59.3
2018-09-12T10:44:02.865Z,59.31
2018-09-12T10:45:03.089Z,59.34
2018-09-12T10:46:03.032Z,59.29
2018-09-12T10:47:02.863Z,59.35
2018-09-12T10:48:02.913Z,59.35
2018-09-12T10:49:03.127Z,59.3
2018-09-12T10:50:03.030Z,59.36
2018-09-12T10:51:03.007Z,59.35
2018-09-12T10:52:02.998Z,59.32
2018-09-12T10:53:02.801Z,59.26
2018-09-12T10:54:02.918Z,59.28
2018-09-12T10:55:03.150Z,59.23
2018-09-12T10:56:02.968Z,59.24
2018-09-12T10:57:02.731Z,59.29
2018-09-12T10:58:02.808Z,59.28
2018-09-12T10:59:03.612Z,59.31
2018-09-12T11:00:02.935Z,59.34
2018-09-12T11:01:03.282Z,59.36
2018-09-12T11:02:02.951Z,59.35
2018-09-12T11:03:02.949Z,59.35
2018-09-12T11:04:03.135Z,59.33
2018-09-12T11:05:03.020Z,59.37
2018-09-12T11:06:02.804Z,59.33
2018-09-12T11:07:02.925Z,59.28
2018-09-12T11:08:02.790Z,59.26
2018-09-12T11:09:02.866Z,59.29
2018-09-12T11:10:02.959Z,59.29
2018-09-12T11:11:02.969Z,59.26
2018-09-12T11:12:03.045Z,59.26
2018-09-12T11:13:03.041Z,59.29
2018-09-12T11:14:03.091Z,59.27
2018-09-12T11:15:02.985Z,59.33
2018-09-12T11:16:03.286Z,59.32
2018-09-12T11:17:02.980Z,59.33
2018-09-12T11:18:03.166Z,59.3
2018-09-12T11:19:03.141Z,59.26
2018-09-12T11:20:03.004Z,59.26
2018-09-12T11:21:03.108Z,59.3
2018-09-12T11:22:02.948Z,59.3
2018-09-12T11:23:03.231Z,59.3
2018-09-12T11:24:04.288Z,59.29
2018-09-12T11:25:03.040Z,59.33
2018-09-12T11:26:02.969Z,59.27
2018-09-12T11:27:03.045Z,59.31
2018-09-12T11:28:03.174Z,59.36
2018-09-12T11:29:02.972Z,59.32
2018-09-12T11:30:02.880Z,59.3
2018-09-12T11:31:02.992Z,59.35
2018-09-12T11:32:03.079Z,59.3
2018-09-12T11:33:02.978Z,59.26
2018-09-12T11:34:02.852Z,59.24
2018-09-12T11:35:03.254Z,59.21
2018-09-12T11:36:03.025Z,59.3
2018-09-12T11:37:03.024Z,59.3
2018-09-12T11:38:02.847Z,59.33
2018-09-12T11:39:03.161Z,59.31
2018-09-12T11:40:03.381Z,59.28
2018-09-12T11:41:03.207Z,59.32
2018-09-12T11:42:03.071Z,59.31
2018-09-12T11:43:02.834Z,59.27
2018-09-12T11:44:03.068Z,59.24
2018-09-12T11:45:03.421Z,59.21
2018-09-12T11:46:02.902Z,59.22
2018-09-12T11:47:03.048Z,59.28
2018-09-12T11:48:02.950Z,59.3
2018-09-12T11:49:03.335Z,59.26
2018-09-12T11:50:02.931Z,59.26
2018-09-12T11:51:02.994Z,59.26
2018-09-12T11:52:02.809Z,59.28
2018-09-12T11:53:02.980Z,59.32
2018-09-12T11:54:03.035Z,59.32
2018-09-12T11:55:03.181Z,59.3
2018-09-12T11:56:02.971Z,59.26
2018-09-12T11:57:02.946Z,59.24
2018-09-12T11:58:02.885Z,59.33
2018-09-12T11:59:02.871Z,59.3
2018-09-12T12:00:03.073Z,59.29
2018-09-12T12:01:02.996Z,59.32
2018-09-12T12:02:03.476Z,59.31
2018-09-12T12:03:03.108Z,59.34
2018-09-12T12:04:03.168Z,59.31
2018-09-12T12:05:02.988Z,59.29
2018-09-12T12:06:03.225Z,59.33
2018-09-12T12:07:02.853Z,59.32
2018-09-12T12:08:03.079Z,59.28
2018-09-12T12:09:02.873Z,59.3
2018-09-12T12:10:02.993Z,59.32
2018-09-12T12:11:02.924Z,59.32
2018-09-12T12:12:02.948Z,59.33
2018-09-12T12:13:03.121Z,59.36
2018-09-12T12:14:03.103Z,59.3
2018-09-12T12:15:03.108Z,59.29
2018-09-12T12:16:02.861Z,59.32
2018-09-12T12:17:02.916Z,59.28
2018-09-12T12:18:03.230Z,59.3
2018-09-12T12:19:02.956Z,59.36
2018-09-12T12:20:02.776Z,59.31
2018-09-12T12:21:02.822Z,59.25
2018-09-12T12:22:02.952Z,59.32
2018-09-12T12:23:03.195Z,59.26
2018-09-12T12:24:02.888Z,59.27
2018-09-12T12:25:02.953Z,59.32
2018-09-12T12:26:02.929Z,59.3
2018-09-12T12:27:03.184Z,59.28
2018-09-12T12:28:02.920Z,59.28
2018-09-12T12:29:02.914Z,59.3
2018-09-12T12:30:02.890Z,59.28
2018-09-12T12:31:02.925Z,59.33
2018-09-12T12:32:02.890Z,59.3
2018-09-12T12:33:02.991Z,59.26
2018-09-12T12:34:03.057Z,59.28
2018-09-12T12:35:02.918Z,59.31
2018-09-12T12:36:02.861Z,59.29
2018-09-12T12:37:02.853Z,59.29
2018-09-12T12:38:02.806Z,59.3
2018-09-12T12:39:02.961Z,59.3
2018-09-12T12:40:02.875Z,59.28
2018-09-12T12:41:02.848Z,59.32
2018-09-12T12:42:02.974Z,59.42
2018-09-12T12:43:02.971Z,59.32
2018-09-12T12:44:02.909Z,59.25
2018-09-12T12:45:02.870Z,59.26
2018-09-12T12:46:03.026Z,59.33
2018-09-12T12:47:02.805Z,59.34
2018-09-12T12:48:02.867Z,59.43
2018-09-12T12:49:02.724Z,59.54
2018-09-12T12:50:02.836Z,59.58
2018-09-12T12:51:02.979Z,59.75
2018-09-12T12:52:02.714Z,59.91
2018-09-12T12:53:02.819Z,59.77
2018-09-12T12:54:03.033Z,59.93
2018-09-12T12:55:03.567Z,59.88